Time;durP1;ratioP1;P1;durP2;ratioP2;P2;SDS_P1;SDS_P2;PMS_P1;PMS_P2;Temp;Humidity;BMP_temperature;BMP_pressure;BME280_temperature;BME280_humidity;BME280_pressure;Samples;Min_cycle;Max_cycle;Signal;HPM_P1;HPM_P2
2023/10/18 00:01:41;;;;;;;;;;;5.20;99.90;;;;;;5093517;28;19928;-31
2023/10/18 00:04:13;;;;;;;;;;;5.20;99.90;;;;;;5091745;28;19924;-31
2023/10/18 00:06:40;;;;;;;;;;;5.20;99.90;;;;;;5094434;28;19985;-30
2023/10/18 00:11:48;;;;;;;;;;;5.20;99.90;;;;;;5110281;28;20332;-31
2023/10/18 00:14:14;;;;;;;;;;;5.30;99.90;;;;;;5092307;28;19931;-31
2023/10/18 00:16:41;;;;;;;;;;;5.20;99.90;;;;;;5093036;28;20438;-31
2023/10/18 00:19:08;;;;;;;;;;;5.20;99.90;;;;;;5093442;28;19924;-31
2023/10/18 00:21:36;;;;;;;;;;;5.20;99.90;;;;;;5111895;28;19924;-31
2023/10/18 00:24:02;;;;;;;;;;;5.20;99.90;;;;;;5110405;28;19928;-31
2023/10/18 00:26:29;;;;;;;;;;;5.20;99.90;;;;;;5111099;28;19924;-31
2023/10/18 00:28:56;;;;;;;;;;;5.20;99.90;;;;;;5091340;28;19924;-31
2023/10/18 00:31:23;;;;;;;;;;;5.20;99.90;;;;;;5092636;28;19973;-31
2023/10/18 00:33:50;;;;;;;;;;;5.20;99.90;;;;;;5092243;28;20022;-31
2023/10/18 00:36:17;;;;;;;;;;;5.10;99.90;;;;;;5092824;28;20478;-31
2023/10/18 00:38:45;;;;;;;;;;;5.10;99.90;;;;;;5092937;28;19930;-31
2023/10/18 00:41:14;;;;;;;;;;;5.20;99.90;;;;;;5093677;28;19928;-30
2023/10/18 00:43:44;;;;;;;;;;;5.20;99.90;;;;;;5091870;28;20194;-31
2023/10/18 00:46:12;;;;;;;;;;;5.20;99.90;;;;;;5092421;28;19930;-31
2023/10/18 00:48:39;;;;;;;;;;;5.10;99.90;;;;;;5092673;28;20414;-31
2023/10/18 00:51:09;;;;;;;;;;;5.10;99.90;;;;;;5111755;28;19969;-32
2023/10/18 00:53:35;;;;;;;;;;;5.10;99.90;;;;;;5092146;28;19965;-30
2023/10/18 00:56:04;;;;;;;;;;;5.10;99.90;;;;;;5111195;28;19930;-31
2023/10/18 00:58:31;;;;;;;;;;;5.10;99.90;;;;;;5086544;28;20565;-31
2023/10/18 01:00:58;;;;;;;;;;;5.10;99.90;;;;;;5076417;28;19964;-31
2023/10/18 01:03:32;;;;;;;;;;;5.10;99.90;;;;;;5091013;28;20056;-31
2023/10/18 01:06:04;;;;;;;;;;;5.10;99.90;;;;;;5110101;28;19924;-30
2023/10/18 01:08:30;;;;;;;;;;;5.10;99.90;;;;;;5092934;28;19930;-30
2023/10/18 01:11:01;;;;;;;;;;;5.10;99.90;;;;;;5112402;28;19928;-31
2023/10/18 01:13:29;;;;;;;;;;;5.10;99.90;;;;;;5096430;28;19924;-31
2023/10/18 01:15:57;;;;;;;;;;;5.10;99.90;;;;;;5095416;28;19924;-30
2023/10/18 01:18:24;;;;;;;;;;;5.10;99.90;;;;;;5114803;28;20015;-31
2023/10/18 01:20:52;;;;;;;;;;;5.10;99.90;;;;;;5095467;28;19928;-33
2023/10/18 01:23:19;;;;;;;;;;;5.10;99.90;;;;;;5094572;28;20706;-31
2023/10/18 01:25:48;;;;;;;;;;;5.00;99.90;;;;;;5114401;28;19928;-33
2023/10/18 01:28:14;;;;;;;;;;;5.00;99.90;;;;;;5095094;28;20011;-30
2023/10/18 01:30:41;;;;;;;;;;;5.10;99.90;;;;;;5096522;28;20337;-31
2023/10/18 01:33:10;;;;;;;;;;;5.10;99.90;;;;;;5111847;28;20453;-32
2023/10/18 01:35:39;;;;;;;;;;;5.00;99.90;;;;;;5095514;28;19947;-31
2023/10/18 01:38:13;;;;;;;;;;;5.10;99.90;;;;;;5114054;28;20287;-31
2023/10/18 01:40:42;;;;;;;;;;;5.10;99.90;;;;;;5096497;28;19963;-32
2023/10/18 01:43:11;;;;;;;;;;;5.00;99.90;;;;;;5113206;28;19924;-31
2023/10/18 01:45:38;;;;;;;;;;;5.10;99.90;;;;;;5112606;28;20003;-31
2023/10/18 01:48:09;;;;;;;;;;;5.10;99.90;;;;;;5094391;28;20387;-31
2023/10/18 01:50:37;;;;;;;;;;;5.10;99.90;;;;;;5092549;28;19975;-31
2023/10/18 01:53:15;;;;;;;;;;;5.10;99.90;;;;;;5095116;28;19924;-31
2023/10/18 01:55:43;;;;;;;;;;;5.10;99.90;;;;;;5095476;28;19954;-31
2023/10/18 01:58:11;;;;;;;;;;;5.10;99.90;;;;;;5113372;28;19924;-31
2023/10/18 02:00:41;;;;;;;;;;;5.10;99.90;;;;;;5092729;28;20457;-31
2023/10/18 02:03:11;;;;;;;;;;;5.00;99.90;;;;;;5093119;28;19923;-32
2023/10/18 02:05:38;;;;;;;;;;;5.00;99.90;;;;;;5094094;28;19953;-31
2023/10/18 02:08:05;;;;;;;;;;;5.00;99.90;;;;;;5113131;28;19984;-31
2023/10/18 02:10:33;;;;;;;;;;;5.00;99.90;;;;;;5095361;28;19924;-33
2023/10/18 02:13:00;;;;;;;;;;;5.10;99.90;;;;;;5094852;28;19963;-31
2023/10/18 02:15:30;;;;;;;;;;;5.10;99.90;;;;;;5113224;28;19990;-31
2023/10/18 02:17:57;;;;;;;;;;;5.00;99.90;;;;;;5094822;28;20068;-33
2023/10/18 02:20:27;;;;;;;;;;;5.00;99.90;;;;;;5092307;28;20003;-31
2023/10/18 02:22:58;;;;;;;;;;;5.00;99.90;;;;;;5094863;28;19976;-32
2023/10/18 02:25:36;;;;;;;;;;;5.00;99.90;;;;;;5096538;28;19989;-31
2023/10/18 02:28:07;;;;;;;;;;;5.00;99.90;;;;;;5093917;28;19923;-31
2023/10/18 02:30:35;;;;;;;;;;;5.00;99.90;;;;;;5094023;28;19924;-30
2023/10/18 02:33:04;;;;;;;;;;;5.10;99.90;;;;;;5109204;28;19928;-30
2023/10/18 02:35:31;;;;;;;;;;;5.00;99.90;;;;;;5112325;28;20421;-31
2023/10/18 02:37:58;;;;;;;;;;;5.00;99.90;;;;;;5096205;28;20337;-32
2023/10/18 02:40:30;;;;;;;;;;;5.00;99.90;;;;;;5110394;28;19958;-30
2023/10/18 02:42:58;;;;;;;;;;;5.10;99.90;;;;;;5095400;28;19924;-31
2023/10/18 02:45:24;;;;;;;;;;;5.00;99.90;;;;;;5095797;28;20007;-31
2023/10/18 02:47:52;;;;;;;;;;;5.10;99.90;;;;;;5094695;28;19981;-31
2023/10/18 02:50:19;;;;;;;;;;;5.00;99.90;;;;;;5093850;28;19969;-30
2023/10/18 02:52:46;;;;;;;;;;;5.00;99.90;;;;;;5113184;28;19924;-30
2023/10/18 02:55:13;;;;;;;;;;;5.10;99.90;;;;;;5112126;28;19924;-30
2023/10/18 02:57:42;;;;;;;;;;;5.10;99.90;;;;;;5092173;28;19964;-31
2023/10/18 03:00:11;;;;;;;;;;;5.10;99.90;;;;;;5092271;28;19964;-31
2023/10/18 03:02:38;;;;;;;;;;;5.10;99.90;;;;;;5113520;28;20044;-31
2023/10/18 03:05:06;;;;;;;;;;;5.10;99.90;;;;;;5094162;28;19931;-33
2023/10/18 03:07:34;;;;;;;;;;;5.10;99.90;;;;;;5086571;28;19958;-30
2023/10/18 03:10:11;;;;;;;;;;;5.10;99.90;;;;;;5093169;28;19931;-33
2023/10/18 03:12:38;;;;;;;;;;;5.10;99.90;;;;;;5094174;28;19975;-31
2023/10/18 03:15:08;;;;;;;;;;;5.10;99.90;;;;;;5095678;28;19928;-32
2023/10/18 03:17:36;;;;;;;;;;;5.10;99.90;;;;;;5093415;28;19931;-32
2023/10/18 03:20:09;;;;;;;;;;;5.10;99.90;;;;;;5109597;28;19924;-32
2023/10/18 03:22:42;;;;;;;;;;;5.10;99.90;;;;;;5111595;28;19923;-32
2023/10/18 03:25:10;;;;;;;;;;;5.10;99.90;;;;;;5093834;28;20424;-32
2023/10/18 03:27:41;;;;;;;;;;;5.10;99.90;;;;;;5111732;28;20345;-31
2023/10/18 03:30:17;;;;;;;;;;;5.10;99.90;;;;;;5111328;28;19953;-32
2023/10/18 03:32:44;;;;;;;;;;;5.10;99.90;;;;;;5110769;28;20328;-32
2023/10/18 03:35:13;;;;;;;;;;;5.00;99.90;;;;;;5093986;28;19989;-32
2023/10/18 03:37:41;;;;;;;;;;;5.00;99.90;;;;;;5087233;28;20488;-32
2023/10/18 03:40:17;;;;;;;;;;;5.10;99.90;;;;;;5088949;28;20373;-31
2023/10/18 03:42:45;;;;;;;;;;;5.00;99.90;;;;;;5107874;28;19960;-32
2023/10/18 03:45:11;;;;;;;;;;;5.00;99.90;;;;;;5074635;28;19982;-34
2023/10/18 03:47:38;;;;;;;;;;;5.00;99.90;;;;;;5089197;28;19924;-32
2023/10/18 03:50:08;;;;;;;;;;;5.00;99.90;;;;;;5092793;28;20402;-33
2023/10/18 03:52:35;;;;;;;;;;;5.00;99.90;;;;;;5092945;28;20384;-32
2023/10/18 03:55:12;;;;;;;;;;;5.00;99.90;;;;;;5093234;28;19928;-32
2023/10/18 03:57:39;;;;;;;;;;;5.00;99.90;;;;;;5094461;28;19928;-32
2023/10/18 04:00:28;;;;;;;;;;;5.00;99.90;;;;;;5110488;28;20334;-32
2023/10/18 04:02:56;;;;;;;;;;;5.10;99.90;;;;;;5091253;28;19928;-31
2023/10/18 04:05:30;;;;;;;;;;;5.10;99.90;;;;;;5089715;28;19954;-31
2023/10/18 04:07:57;;;;;;;;;;;5.10;99.90;;;;;;5092191;28;19977;-31
2023/10/18 04:10:26;;;;;;;;;;;5.10;99.90;;;;;;5091637;28;19946;-32
2023/10/18 04:12:54;;;;;;;;;;;5.10;99.90;;;;;;5093988;28;20410;-32
2023/10/18 04:15:22;;;;;;;;;;;5.20;99.90;;;;;;5111226;28;19946;-32
2023/10/18 04:18:02;;;;;;;;;;;5.20;99.90;;;;;;5092212;28;19996;-32
2023/10/18 04:20:31;;;;;;;;;;;5.10;99.90;;;;;;5091521;28;19923;-32
2023/10/18 04:22:58;;;;;;;;;;;5.10;99.90;;;;;;5093912;28;19928;-31
2023/10/18 04:25:26;;;;;;;;;;;5.20;99.90;;;;;;5110882;28;20075;-32
2023/10/18 04:27:53;;;;;;;;;;;5.10;99.90;;;;;;5110958;28;19923;-32
2023/10/18 04:30:22;;;;;;;;;;;5.20;99.90;;;;;;5089605;28;19958;-32
2023/10/18 04:32:53;;;;;;;;;;;5.20;99.90;;;;;;5086458;28;19934;-32
2023/10/18 04:35:25;;;;;;;;;;;5.20;99.90;;;;;;5089437;28;19924;-33
2023/10/18 04:37:52;;;;;;;;;;;5.10;99.90;;;;;;5107067;28;19928;-33
2023/10/18 04:40:23;;;;;;;;;;;5.10;99.90;;;;;;5112052;28;19924;-31
2023/10/18 04:42:51;;;;;;;;;;;5.10;99.90;;;;;;5106994;28;19924;-32
2023/10/18 04:45:18;;;;;;;;;;;5.10;99.90;;;;;;5095182;28;19993;-32
2023/10/18 04:47:49;;;;;;;;;;;5.10;99.90;;;;;;5114946;28;19958;-33
2023/10/18 04:50:18;;;;;;;;;;;5.00;99.90;;;;;;5113328;28;19928;-32
2023/10/18 04:52:47;;;;;;;;;;;5.10;99.90;;;;;;5110785;28;21794;-31
2023/10/18 04:55:14;;;;;;;;;;;5.00;99.90;;;;;;5092682;28;20264;-34
2023/10/18 04:57:41;;;;;;;;;;;5.00;99.90;;;;;;5112577;28;20018;-32
2023/10/18 05:00:24;;;;;;;;;;;5.10;99.90;;;;;;5087553;28;19924;-31
2023/10/18 05:02:52;;;;;;;;;;;5.00;99.90;;;;;;5092385;28;19962;-32
2023/10/18 05:05:17;;;;;;;;;;;5.00;99.90;;;;;;5109800;27;19935;-31
2023/10/18 05:07:47;;;;;;;;;;;5.00;99.90;;;;;;5093336;28;20372;-32
2023/10/18 05:10:16;;;;;;;;;;;5.00;99.90;;;;;;5090820;28;20375;-31
2023/10/18 05:13:01;;;;;;;;;;;5.00;99.90;;;;;;5097111;28;19930;-32
2023/10/18 05:15:32;;;;;;;;;;;5.00;99.90;;;;;;5096291;28;19924;-33
2023/10/18 05:18:04;;;;;;;;;;;4.90;99.90;;;;;;5089883;28;19924;-33
2023/10/18 05:20:46;;;;;;;;;;;4.90;99.90;;;;;;5088265;28;19931;-32
2023/10/18 05:23:19;;;;;;;;;;;4.90;99.90;;;;;;5094724;28;20036;-31
2023/10/18 05:25:46;;;;;;;;;;;4.90;99.90;;;;;;5085190;28;19927;-32
2023/10/18 05:28:16;;;;;;;;;;;4.90;99.90;;;;;;5114894;28;20279;-32
2023/10/18 05:36:29;;;;;;;;;;;4.90;99.90;;;;;;5101083;28;19938;-32
2023/10/18 05:39:05;;;;;;;;;;;4.80;99.90;;;;;;5097307;28;19932;-31
2023/10/18 05:41:36;;;;;;;;;;;4.80;99.90;;;;;;5114930;28;19924;-31
2023/10/18 05:44:05;;;;;;;;;;;4.80;99.90;;;;;;5097544;28;19930;-32
2023/10/18 05:46:34;;;;;;;;;;;4.80;99.90;;;;;;5097118;28;20012;-32
2023/10/18 05:49:01;;;;;;;;;;;4.80;99.90;;;;;;5115344;28;20012;-32
2023/10/18 05:51:32;;;;;;;;;;;4.80;99.90;;;;;;5114689;28;20331;-32
2023/10/18 05:53:59;;;;;;;;;;;4.80;99.90;;;;;;5115533;28;19924;-31
2023/10/18 05:56:29;;;;;;;;;;;4.80;99.90;;;;;;5097337;28;19962;-32
2023/10/18 05:59:16;;;;;;;;;;;4.80;99.90;;;;;;5096984;28;19962;-31
2023/10/18 06:01:44;;;;;;;;;;;4.80;99.90;;;;;;5113262;28;20414;-31
2023/10/18 06:04:12;;;;;;;;;;;4.80;99.90;;;;;;5115049;28;19924;-31
2023/10/18 06:06:39;;;;;;;;;;;4.80;99.90;;;;;;5096984;28;19983;-32
2023/10/18 06:09:10;;;;;;;;;;;4.90;99.90;;;;;;5097173;28;19934;-32
2023/10/18 06:11:37;;;;;;;;;;;4.80;99.90;;;;;;5113803;28;19957;-31
2023/10/18 06:14:05;;;;;;;;;;;4.90;99.90;;;;;;5114129;28;20375;-33
2023/10/18 06:16:34;;;;;;;;;;;4.80;99.90;;;;;;5114921;28;19923;-31
2023/10/18 06:19:03;;;;;;;;;;;4.80;99.90;;;;;;5114574;28;20333;-32
2023/10/18 06:21:35;;;;;;;;;;;4.90;99.90;;;;;;5095493;28;19953;-32
2023/10/18 06:24:08;;;;;;;;;;;4.80;99.90;;;;;;5094529;28;19925;-31
2023/10/18 06:26:36;;;;;;;;;;;4.90;99.90;;;;;;5096378;28;20025;-35
2023/10/18 06:29:08;;;;;;;;;;;4.90;99.90;;;;;;5114392;28;20342;-31
2023/10/18 06:31:39;;;;;;;;;;;4.90;99.90;;;;;;5113538;28;19924;-32
2023/10/18 06:34:15;;;;;;;;;;;4.90;99.90;;;;;;5096231;28;20205;-31
2023/10/18 06:36:42;;;;;;;;;;;4.90;99.90;;;;;;5096446;28;20333;-31
2023/10/18 06:39:16;;;;;;;;;;;5.00;99.90;;;;;;5114526;28;19950;-32
2023/10/18 06:41:43;;;;;;;;;;;5.00;99.90;;;;;;5094747;28;20310;-33
2023/10/18 06:44:11;;;;;;;;;;;5.00;99.90;;;;;;5087791;28;19960;-31
2023/10/18 06:46:38;;;;;;;;;;;5.00;99.90;;;;;;5095785;28;19963;-31
2023/10/18 06:49:10;;;;;;;;;;;5.10;99.90;;;;;;5094720;28;20353;-32
2023/10/18 06:51:41;;;;;;;;;;;5.10;99.90;;;;;;5096070;28;19948;-31
2023/10/18 06:54:13;;;;;;;;;;;5.10;99.90;;;;;;5114118;28;19930;-31
2023/10/18 06:56:40;;;;;;;;;;;5.10;99.90;;;;;;5095932;28;20390;-31
2023/10/18 06:59:07;;;;;;;;;;;5.20;99.90;;;;;;5113381;28;19965;-32
2023/10/18 07:01:41;;;;;;;;;;;5.20;99.90;;;;;;5114059;28;20027;-32
2023/10/18 07:04:15;;;;;;;;;;;5.30;99.90;;;;;;5096297;28;19964;-32
2023/10/18 07:06:45;;;;;;;;;;;5.30;99.90;;;;;;5095528;28;20271;-32
2023/10/18 07:09:24;;;;;;;;;;;5.30;99.90;;;;;;5112267;28;19992;-32
2023/10/18 07:11:51;;;;;;;;;;;5.40;99.90;;;;;;5113791;28;19928;-32
2023/10/18 07:14:19;;;;;;;;;;;5.40;99.90;;;;;;5113851;28;19924;-31
2023/10/18 07:16:48;;;;;;;;;;;5.40;99.90;;;;;;5113670;28;19932;-31
2023/10/18 07:19:27;;;;;;;;;;;5.50;99.90;;;;;;5094657;28;20003;-31
2023/10/18 07:21:55;;;;;;;;;;;5.50;99.90;;;;;;5095234;28;19928;-31
2023/10/18 07:24:21;;;;;;;;;;;5.60;99.90;;;;;;5113676;28;19924;-32
2023/10/18 07:26:48;;;;;;;;;;;5.60;99.90;;;;;;5113562;28;20007;-31
2023/10/18 07:29:15;;;;;;;;;;;5.70;99.90;;;;;;5108589;28;19958;-32
2023/10/18 07:31:44;;;;;;;;;;;5.70;99.90;;;;;;5111507;28;19931;-32
2023/10/18 07:34:17;;;;;;;;;;;5.70;99.90;;;;;;5095173;28;20399;-31
2023/10/18 07:36:45;;;;;;;;;;;5.80;99.90;;;;;;5110481;28;20329;-32
2023/10/18 07:39:16;;;;;;;;;;;5.80;99.90;;;;;;5112619;27;19923;-31
2023/10/18 07:41:42;;;;;;;;;;;5.80;99.90;;;;;;5095331;28;19923;-33
2023/10/18 07:44:09;;;;;;;;;;;5.90;99.90;;;;;;5095046;28;20372;-32
2023/10/18 07:46:39;;;;;;;;;;;5.90;99.90;;;;;;5093696;28;19959;-32
2023/10/18 07:49:11;;;;;;;;;;;6.00;99.90;;;;;;5111866;28;20333;-32
2023/10/18 07:51:43;;;;;;;;;;;6.00;99.90;;;;;;5095381;28;19942;-31
2023/10/18 07:54:09;;;;;;;;;;;6.00;99.90;;;;;;5094769;28;19924;-31
2023/10/18 07:56:40;;;;;;;;;;;6.10;99.90;;;;;;5112196;28;19935;-31
2023/10/18 08:01:52;;;;;;;;;;;6.20;99.90;;;;;;5112117;28;19976;-32
2023/10/18 08:04:20;;;;;;;;;;;6.20;99.90;;;;;;5112999;28;19924;-31
2023/10/18 08:06:48;;;;;;;;;;;6.30;99.90;;;;;;5111283;28;20574;-32
2023/10/18 08:09:17;;;;;;;;;;;6.30;99.90;;;;;;5112817;28;19931;-32
2023/10/18 08:11:46;;;;;;;;;;;6.40;99.90;;;;;;5112866;28;20361;-31
2023/10/18 08:14:18;;;;;;;;;;;6.40;99.90;;;;;;5110653;28;20317;-31
2023/10/18 08:16:52;;;;;;;;;;;6.50;99.90;;;;;;5093972;28;19957;-31
2023/10/18 08:19:22;;;;;;;;;;;6.60;99.90;;;;;;5075985;28;19965;-32
2023/10/18 08:22:05;;;;;;;;;;;6.60;99.90;;;;;;5078848;28;19943;-31
2023/10/18 08:24:34;;;;;;;;;;;6.70;99.90;;;;;;5078849;28;19925;-32
2023/10/18 08:27:09;;;;;;;;;;;6.70;99.90;;;;;;5079191;27;20372;-31
2023/10/18 08:29:35;;;;;;;;;;;6.80;99.90;;;;;;5098696;28;19924;-31
2023/10/18 08:32:07;;;;;;;;;;;6.90;99.90;;;;;;5116931;28;19977;-32
2023/10/18 08:34:34;;;;;;;;;;;6.90;99.90;;;;;;5098562;28;20398;-32
2023/10/18 08:37:03;;;;;;;;;;;7.00;99.90;;;;;;5097456;28;20006;-32
2023/10/18 08:39:30;;;;;;;;;;;7.00;99.90;;;;;;5116577;28;19954;-32
2023/10/18 08:41:57;;;;;;;;;;;7.10;99.90;;;;;;5117146;28;20349;-32
2023/10/18 08:44:26;;;;;;;;;;;7.20;99.90;;;;;;5116543;28;19923;-31
2023/10/18 08:47:03;;;;;;;;;;;7.20;99.90;;;;;;5098231;28;19955;-31
2023/10/18 08:49:33;;;;;;;;;;;7.30;99.90;;;;;;5097863;28;20385;-32
2023/10/18 08:52:06;;;;;;;;;;;7.40;99.90;;;;;;5115917;28;19928;-32
2023/10/18 08:54:33;;;;;;;;;;;7.40;99.90;;;;;;5116688;28;19963;-31
2023/10/18 08:57:06;;;;;;;;;;;7.50;99.90;;;;;;5115687;28;19962;-31
2023/10/18 08:59:42;;;;;;;;;;;7.60;99.90;;;;;;5115901;28;19935;-32
2023/10/18 09:02:13;;;;;;;;;;;7.70;99.90;;;;;;5098272;28;19924;-32
2023/10/18 09:04:44;;;;;;;;;;;7.70;99.90;;;;;;5116157;28;20448;-31
2023/10/18 09:07:21;;;;;;;;;;;7.80;99.90;;;;;;5097289;28;20015;-31
2023/10/18 09:09:53;;;;;;;;;;;7.80;99.90;;;;;;5098566;28;19924;-32
2023/10/18 09:12:31;;;;;;;;;;;7.90;99.90;;;;;;5116421;28;19924;-32
2023/10/18 09:14:59;;;;;;;;;;;7.90;99.90;;;;;;5098152;28;19931;-32
2023/10/18 09:17:25;;;;;;;;;;;8.00;99.90;;;;;;5097030;27;19927;-32
2023/10/18 09:19:55;;;;;;;;;;;8.10;99.90;;;;;;5116245;28;20398;-31
2023/10/18 09:22:22;;;;;;;;;;;8.10;99.90;;;;;;5097930;28;19924;-31
2023/10/18 09:24:48;;;;;;;;;;;8.20;99.90;;;;;;5097849;28;19984;-31
2023/10/18 09:27:15;;;;;;;;;;;8.20;99.90;;;;;;5114401;27;20333;-31
2023/10/18 09:29:43;;;;;;;;;;;8.30;99.90;;;;;;5091542;28;19935;-32
2023/10/18 09:32:24;;;;;;;;;;;8.30;99.90;;;;;;5097621;28;19924;-32
2023/10/18 09:34:51;;;;;;;;;;;8.40;99.90;;;;;;5095778;28;19927;-31
2023/10/18 09:37:24;;;;;;;;;;;8.50;99.90;;;;;;5097456;28;19981;-32
2023/10/18 09:39:56;;;;;;;;;;;8.60;99.90;;;;;;5097191;28;19927;-33
2023/10/18 09:42:22;;;;;;;;;;;8.60;99.90;;;;;;5097697;28;19938;-32
2023/10/18 09:44:50;;;;;;;;;;;8.70;99.90;;;;;;5096441;28;19974;-31
2023/10/18 09:47:18;;;;;;;;;;;8.80;99.90;;;;;;5115538;28;19965;-32
2023/10/18 09:49:45;;;;;;;;;;;8.80;99.90;;;;;;5097341;28;20265;-31
2023/10/18 09:52:12;;;;;;;;;;;8.90;99.90;;;;;;5115377;28;19928;-31
2023/10/18 09:54:40;;;;;;;;;;;9.00;99.90;;;;;;5096475;28;19930;-32
2023/10/18 09:57:07;;;;;;;;;;;9.10;99.90;;;;;;5096825;28;20040;-32
2023/10/18 09:59:37;;;;;;;;;;;9.20;99.90;;;;;;5097374;28;19923;-31
2023/10/18 10:02:08;;;;;;;;;;;9.20;99.90;;;;;;5115160;28;19953;-30
2023/10/18 10:04:36;;;;;;;;;;;9.30;99.90;;;;;;5113234;28;20363;-32
2023/10/18 10:09:50;;;;;;;;;;;9.40;99.90;;;;;;5088187;28;19923;-32
2023/10/18 10:12:17;;;;;;;;;;;9.50;99.90;;;;;;5115325;28;19962;-31
2023/10/18 10:14:44;;;;;;;;;;;9.50;99.90;;;;;;5097101;28;19969;-31
2023/10/18 10:17:11;;;;;;;;;;;9.60;99.90;;;;;;5113439;28;20325;-31
2023/10/18 10:19:40;;;;;;;;;;;9.60;99.90;;;;;;5096532;28;19927;-31
2023/10/18 10:22:07;;;;;;;;;;;9.70;99.90;;;;;;5114614;28;19931;-31
2023/10/18 10:24:35;;;;;;;;;;;9.70;99.90;;;;;;5095736;28;19955;-31
2023/10/18 10:27:27;;;;;;;;;;;9.80;99.90;;;;;;5096699;28;20331;-31
2023/10/18 10:30:20;;;;;;;;;;;9.90;99.90;;;;;;5105695;28;20396;-32
2023/10/18 10:32:46;;;;;;;;;;;10.00;99.90;;;;;;5096500;28;19923;-31
2023/10/18 10:35:16;;;;;;;;;;;9.90;99.90;;;;;;5094116;28;19923;-31
2023/10/18 10:37:46;;;;;;;;;;;10.00;99.90;;;;;;5094307;28;19923;-30
2023/10/18 10:40:19;;;;;;;;;;;10.00;99.90;;;;;;5096054;28;19978;-31
2023/10/18 10:42:48;;;;;;;;;;;10.10;99.90;;;;;;5113482;28;20414;-31
2023/10/18 10:45:30;;;;;;;;;;;10.10;99.90;;;;;;5114246;28;19959;-31
2023/10/18 10:47:57;;;;;;;;;;;10.20;99.90;;;;;;5093937;28;19973;-32
2023/10/18 10:50:42;;;;;;;;;;;10.20;99.90;;;;;;5094035;28;19924;-30
2023/10/18 10:53:09;;;;;;;;;;;10.20;99.90;;;;;;5091883;28;19958;-31
2023/10/18 10:55:36;;;;;;;;;;;10.30;99.90;;;;;;5095836;28;20003;-31
2023/10/18 10:58:15;;;;;;;;;;;10.40;99.90;;;;;;5113910;28;20033;-30
2023/10/18 11:00:59;;;;;;;;;;;10.40;99.90;;;;;;5095756;28;19924;-31
2023/10/18 11:03:29;;;;;;;;;;;10.40;99.90;;;;;;5111723;28;19993;-31
2023/10/18 11:05:58;;;;;;;;;;;10.40;99.90;;;;;;5113290;28;20364;-31
2023/10/18 11:08:26;;;;;;;;;;;10.50;99.90;;;;;;5094724;28;19962;-32
2023/10/18 11:10:53;;;;;;;;;;;10.60;99.90;;;;;;5112284;28;19938;-31
2023/10/18 11:13:22;;;;;;;;;;;10.60;99.90;;;;;;5092632;28;20371;-30
2023/10/18 11:15:50;;;;;;;;;;;10.60;99.90;;;;;;5111419;28;19967;-31
2023/10/18 11:18:20;;;;;;;;;;;10.70;99.90;;;;;;5095699;28;19938;-32
2023/10/18 11:20:58;;;;;;;;;;;10.80;99.90;;;;;;5091847;28;19951;-31
2023/10/18 11:23:29;;;;;;;;;;;10.80;99.90;;;;;;5112854;28;20521;-33
2023/10/18 11:25:56;;;;;;;;;;;10.90;99.90;;;;;;5095558;28;19939;-32
2023/10/18 11:28:28;;;;;;;;;;;10.90;99.90;;;;;;5095813;28;20397;-31
2023/10/18 11:30:57;;;;;;;;;;;11.00;99.90;;;;;;5110381;28;20312;-31
2023/10/18 11:33:36;;;;;;;;;;;11.10;99.90;;;;;;5093284;28;20010;-31
2023/10/18 11:36:03;;;;;;;;;;;11.20;99.90;;;;;;5113101;28;20359;-32
2023/10/18 11:38:34;;;;;;;;;;;11.30;99.90;;;;;;5095334;28;19930;-32
2023/10/18 11:41:04;;;;;;;;;;;11.40;99.90;;;;;;5093030;28;19924;-31
2023/10/18 11:43:39;;;;;;;;;;;11.40;99.90;;;;;;5095507;28;20484;-30
2023/10/18 11:46:06;;;;;;;;;;;11.50;99.90;;;;;;5095129;28;19924;-31
2023/10/18 11:48:33;;;;;;;;;;;11.50;99.90;;;;;;5113268;28;19985;-30
2023/10/18 11:51:02;;;;;;;;;;;11.50;99.90;;;;;;5111182;28;19924;-32
2023/10/18 11:53:28;;;;;;;;;;;11.50;99.90;;;;;;5095191;28;20099;-32
2023/10/18 11:55:57;;;;;;;;;;;11.50;99.90;;;;;;5113446;28;19958;-32
2023/10/18 11:58:24;;;;;;;;;;;11.60;99.90;;;;;;5113013;28;19923;-32
2023/10/18 12:00:55;;;;;;;;;;;11.60;99.90;;;;;;5094061;28;20299;-31
2023/10/18 12:03:23;;;;;;;;;;;11.50;99.90;;;;;;5112617;28;19931;-30
2023/10/18 12:05:50;;;;;;;;;;;11.60;99.90;;;;;;5113157;28;20440;-32
2023/10/18 12:08:17;;;;;;;;;;;11.60;99.90;;;;;;5113128;28;19924;-31
2023/10/18 12:10:44;;;;;;;;;;;11.60;99.90;;;;;;5092989;28;19968;-31
2023/10/18 12:13:13;;;;;;;;;;;11.60;99.90;;;;;;5095112;28;19973;-31
2023/10/18 12:15:39;;;;;;;;;;;11.70;99.90;;;;;;5112994;28;19928;-32
2023/10/18 12:18:08;;;;;;;;;;;11.70;99.90;;;;;;5094893;28;19960;-33
2023/10/18 12:20:43;;;;;;;;;;;11.60;99.90;;;;;;5093180;28;19924;-31
2023/10/18 12:23:12;;;;;;;;;;;11.60;99.90;;;;;;5091753;28;19966;-31
2023/10/18 12:25:39;;;;;;;;;;;11.70;99.90;;;;;;5112556;28;19948;-31
2023/10/18 12:28:12;;;;;;;;;;;11.70;99.90;;;;;;5094532;28;19931;-31
2023/10/18 12:30:41;;;;;;;;;;;11.70;99.90;;;;;;5092212;28;19945;-31
2023/10/18 12:33:14;;;;;;;;;;;11.80;99.90;;;;;;5093980;28;19996;-32
2023/10/18 12:35:40;;;;;;;;;;;11.90;99.90;;;;;;5112515;28;19958;-32
2023/10/18 12:38:13;;;;;;;;;;;11.90;99.90;;;;;;5094469;28;19938;-32
2023/10/18 12:40:41;;;;;;;;;;;11.90;99.90;;;;;;5093573;28;19924;-31
2023/10/18 12:43:13;;;;;;;;;;;12.00;99.90;;;;;;5094238;28;20049;-31
2023/10/18 12:45:43;;;;;;;;;;;12.00;99.90;;;;;;5094836;28;19927;-31
2023/10/18 12:48:10;;;;;;;;;;;12.00;99.90;;;;;;5094125;28;20353;-31
2023/10/18 12:50:36;;;;;;;;;;;12.00;99.90;;;;;;5111654;28;20049;-32
2023/10/18 12:53:16;;;;;;;;;;;12.10;99.90;;;;;;5094023;28;20464;-31
2023/10/18 12:55:45;;;;;;;;;;;12.10;99.90;;;;;;5112563;28;20111;-32
2023/10/18 12:58:18;;;;;;;;;;;12.10;99.90;;;;;;5094688;28;20019;-32
2023/10/18 13:00:53;;;;;;;;;;;12.10;99.90;;;;;;5106985;28;19923;-33
2023/10/18 13:03:23;;;;;;;;;;;12.20;99.90;;;;;;5107900;28;20322;-32
2023/10/18 13:05:52;;;;;;;;;;;12.20;99.90;;;;;;5096222;28;19966;-32
2023/10/18 13:08:24;;;;;;;;;;;12.30;99.90;;;;;;5105323;28;20005;-32
2023/10/18 13:11:00;;;;;;;;;;;12.40;99.90;;;;;;5093366;28;20280;-32
2023/10/18 13:13:30;;;;;;;;;;;12.50;99.90;;;;;;5097694;28;19924;-31
2023/10/18 13:15:58;;;;;;;;;;;12.50;99.90;;;;;;5097592;28;20368;-32
2023/10/18 13:18:25;;;;;;;;;;;12.50;99.90;;;;;;5097142;28;20361;-32
2023/10/18 13:20:55;;;;;;;;;;;12.60;99.90;;;;;;5115035;28;19962;-31
2023/10/18 13:23:22;;;;;;;;;;;12.60;99.90;;;;;;5116818;27;19961;-32
2023/10/18 13:25:52;;;;;;;;;;;12.60;99.90;;;;;;5115892;28;19962;-35
2023/10/18 13:28:27;;;;;;;;;;;12.50;99.90;;;;;;5115779;28;19984;-32
2023/10/18 13:30:53;;;;;;;;;;;12.50;99.90;;;;;;5097682;28;19948;-32
2023/10/18 13:33:22;;;;;;;;;;;12.40;99.90;;;;;;5109910;28;19978;-32
2023/10/18 13:35:49;;;;;;;;;;;12.30;99.90;;;;;;5088975;28;19931;-34
2023/10/18 13:38:16;;;;;;;;;;;12.20;99.90;;;;;;5115867;28;19934;-32
2023/10/18 13:40:43;;;;;;;;;;;12.10;99.90;;;;;;5097343;28;19973;-32
2023/10/18 13:43:13;;;;;;;;;;;12.00;99.90;;;;;;5114511;28;19930;-32
2023/10/18 13:45:41;;;;;;;;;;;12.00;99.90;;;;;;5093197;28;19927;-33
2023/10/18 13:48:10;;;;;;;;;;;12.00;99.90;;;;;;5090053;28;19931;-33
2023/10/18 13:50:38;;;;;;;;;;;11.90;99.90;;;;;;5094005;28;20069;-34
2023/10/18 13:53:05;;;;;;;;;;;11.90;99.90;;;;;;5093711;28;20026;-32
2023/10/18 13:55:32;;;;;;;;;;;11.90;99.90;;;;;;5093504;28;19923;-32
2023/10/18 13:57:58;;;;;;;;;;;11.80;99.90;;;;;;5118859;27;19924;-32
2023/10/18 14:00:27;;;;;;;;;;;11.80;99.90;;;;;;5096661;28;20027;-32
2023/10/18 14:02:53;;;;;;;;;;;11.80;99.90;;;;;;5096894;28;20333;-32
2023/10/18 14:05:21;;;;;;;;;;;11.70;99.90;;;;;;5114167;28;19967;-32
2023/10/18 14:07:49;;;;;;;;;;;11.70;99.90;;;;;;5094764;28;19924;-34
2023/10/18 14:10:27;;;;;;;;;;;11.70;99.90;;;;;;5096073;28;19924;-32
2023/10/18 14:12:54;;;;;;;;;;;11.70;99.90;;;;;;5110328;28;19958;-32
2023/10/18 14:15:20;;;;;;;;;;;11.70;99.90;;;;;;5103452;28;19963;-32
2023/10/18 14:17:47;;;;;;;;;;;11.70;99.90;;;;;;5103910;28;19923;-33
2023/10/18 14:20:14;;;;;;;;;;;11.70;99.90;;;;;;5094871;28;19958;-32
2023/10/18 14:22:41;;;;;;;;;;;11.70;99.90;;;;;;5087091;28;19934;-32
2023/10/18 14:25:13;;;;;;;;;;;11.70;99.90;;;;;;5090800;28;20400;-32
2023/10/18 14:27:40;;;;;;;;;;;11.80;99.90;;;;;;5093123;28;19958;-31
2023/10/18 14:30:10;;;;;;;;;;;11.80;99.90;;;;;;5110321;28;19934;-32
2023/10/18 14:32:36;;;;;;;;;;;11.70;99.90;;;;;;5112067;28;19947;-32
2023/10/18 14:35:03;;;;;;;;;;;11.70;99.90;;;;;;5091861;28;20407;-32
2023/10/18 14:37:32;;;;;;;;;;;11.70;99.90;;;;;;5096310;28;20001;-32
2023/10/18 14:39:58;;;;;;;;;;;11.70;99.90;;;;;;5092784;28;19924;-33
2023/10/18 14:42:29;;;;;;;;;;;11.70;99.90;;;;;;5112423;28;19924;-32
2023/10/18 14:44:57;;;;;;;;;;;11.70;99.90;;;;;;5090727;28;20037;-32
2023/10/18 14:47:24;;;;;;;;;;;11.60;99.90;;;;;;5091329;28;19958;-32
2023/10/18 14:49:50;;;;;;;;;;;11.60;99.90;;;;;;5112118;28;19970;-32
2023/10/18 14:52:19;;;;;;;;;;;11.60;99.90;;;;;;5114509;28;19974;-32
2023/10/18 14:54:46;;;;;;;;;;;11.60;99.90;;;;;;5094921;27;19928;-32